sensor_id;sensor_type;location;lat;lon;timestamp;pressure;altitude;pressure_sealevel;temperature;humidity
74678;BME280;67324;56.326;43.982;2023-05-20T00:01:32;101321.53;;;20.51;48.04
74678;BME280;67324;56.326;43.982;2023-05-20T00:03:57;101325.94;;;20.51;47.96
74678;BME280;67324;56.326;43.982;2023-05-20T00:06:24;101319.88;;;20.50;48.06
74678;BME280;67324;56.326;43.982;2023-05-20T00:08:49;101317.25;;;20.50;48.05
74678;BME280;67324;56.326;43.982;2023-05-20T00:11:15;101316.25;;;20.51;47.99
74678;BME280;67324;56.326;43.982;2023-05-20T00:13:41;101318.06;;;20.51;47.91
74678;BME280;67324;56.326;43.982;2023-05-20T00:16:07;101310.19;;;20.51;47.95
74678;BME280;67324;56.326;43.982;2023-05-20T00:18:33;101309.47;;;20.49;48.03
74678;BME280;67324;56.326;43.982;2023-05-20T00:20:59;101312.25;;;20.47;47.88
74678;BME280;67324;56.326;43.982;2023-05-20T00:23:25;101306.13;;;20.47;47.96
74678;BME280;67324;56.326;43.982;2023-05-20T00:25:51;101303.50;;;20.47;47.90
74678;BME280;67324;56.326;43.982;2023-05-20T00:28:17;101302.69;;;20.46;48.04
74678;BME280;67324;56.326;43.982;2023-05-20T00:30:44;101306.84;;;20.49;47.83
74678;BME280;67324;56.326;43.982;2023-05-20T00:33:10;101308.66;;;20.48;47.88
74678;BME280;67324;56.326;43.982;2023-05-20T00:35:37;101300.06;;;20.46;47.99
74678;BME280;67324;56.326;43.982;2023-05-20T00:38:03;101308.66;;;20.48;47.98
74678;BME280;67324;56.326;43.982;2023-05-20T00:40:29;101303.66;;;20.45;47.81
74678;BME280;67324;56.326;43.982;2023-05-20T00:42:55;101312.25;;;20.47;48.01
74678;BME280;67324;56.326;43.982;2023-05-20T00:45:21;101307.94;;;20.46;48.03
74678;BME280;67324;56.326;43.982;2023-05-20T00:47:47;101300.16;;;20.44;47.95
74678;BME280;67324;56.326;43.982;2023-05-20T00:50:13;101308.66;;;20.48;47.98
74678;BME280;67324;56.326;43.982;2023-05-20T00:52:39;101301.84;;;20.46;47.96
74678;BME280;67324;56.326;43.982;2023-05-20T00:55:09;101304.47;;;20.46;47.87
74678;BME280;67324;56.326;43.982;2023-05-20T00:57:35;101296.59;;;20.46;48.01
74678;BME280;67324;56.326;43.982;2023-05-20T01:00:04;101300.16;;;20.44;47.96
74678;BME280;67324;56.326;43.982;2023-05-20T01:02:31;101303.78;;;20.43;47.87
74678;BME280;67324;56.326;43.982;2023-05-20T01:04:57;101297.53;;;20.44;47.86
74678;BME280;67324;56.326;43.982;2023-05-20T01:07:24;101292.28;;;20.44;47.92
74678;BME280;67324;56.326;43.982;2023-05-20T01:09:50;101296.00;;;20.42;48.03
74678;BME280;67324;56.326;43.982;2023-05-20T01:12:22;101300.16;;;20.44;47.96
74678;BME280;67324;56.326;43.982;2023-05-20T01:15:14;101305.44;;;20.44;47.92
74678;BME280;67324;56.326;43.982;2023-05-20T01:17:45;101303.66;;;20.45;47.91
74678;BME280;67324;56.326;43.982;2023-05-20T01:20:13;101303.78;;;20.43;48.00
74678;BME280;67324;56.326;43.982;2023-05-20T01:22:52;101299.34;;;20.44;47.97
74678;BME280;67324;56.326;43.982;2023-05-20T01:25:18;101299.50;;;20.42;47.81
74678;BME280;67324;56.326;43.982;2023-05-20T01:27:46;101294.34;;;20.41;48.05
74678;BME280;67324;56.326;43.982;2023-05-20T01:30:13;101294.22;;;20.42;47.91
74678;BME280;67324;56.326;43.982;2023-05-20T01:32:42;101291.00;;;20.39;47.94
74678;BME280;67324;56.326;43.982;2023-05-20T01:35:13;101296.00;;;20.42;47.99
74678;BME280;67324;56.326;43.982;2023-05-20T01:37:40;101288.38;;;20.39;47.89
74678;BME280;67324;56.326;43.982;2023-05-20T01:40:07;101296.00;;;20.42;47.83
74678;BME280;67324;56.326;43.982;2023-05-20T01:42:35;101300.44;;;20.41;47.93
74678;BME280;67324;56.326;43.982;2023-05-20T01:45:02;101297.09;;;20.39;47.92
74678;BME280;67324;56.326;43.982;2023-05-20T01:47:31;101299.72;;;20.39;48.00
74678;BME280;67324;56.326;43.982;2023-05-20T01:49:57;101302.25;;;20.41;47.77
74678;BME280;67324;56.326;43.982;2023-05-20T01:52:23;101295.44;;;20.38;47.87
74678;BME280;67324;56.326;43.982;2023-05-20T01:54:49;101297.09;;;20.39;47.91
74678;BME280;67324;56.326;43.982;2023-05-20T01:57:19;101299.88;;;20.38;47.93
74678;BME280;67324;56.326;43.982;2023-05-20T01:59:45;101307.59;;;20.39;47.85
74678;BME280;67324;56.326;43.982;2023-05-20T02:02:12;101305.84;;;20.40;47.94
74678;BME280;67324;56.326;43.982;2023-05-20T02:04:43;101300.69;;;20.38;47.83
74678;BME280;67324;56.326;43.982;2023-05-20T02:07:14;101299.88;;;20.38;47.83
74678;BME280;67324;56.326;43.982;2023-05-20T02:09:40;101302.34;;;20.39;47.91
74678;BME280;67324;56.326;43.982;2023-05-20T02:12:25;101309.41;;;20.39;47.87
74678;BME280;67324;56.326;43.982;2023-05-20T02:14:53;101305.13;;;20.38;47.84
74678;BME280;67324;56.326;43.982;2023-05-20T02:17:19;101306.06;;;20.37;47.72
74678;BME280;67324;56.326;43.982;2023-05-20T02:19:46;101300.81;;;20.37;47.95
74678;BME280;67324;56.326;43.982;2023-05-20T02:22:13;101306.78;;;20.39;47.93
74678;BME280;67324;56.326;43.982;2023-05-20T02:24:39;101304.41;;;20.36;47.83
74678;BME280;67324;56.326;43.982;2023-05-20T02:27:05;101310.38;;;20.38;47.77
74678;BME280;67324;56.326;43.982;2023-05-20T02:29:33;101307.75;;;20.38;47.75
74678;BME280;67324;56.326;43.982;2023-05-20T02:31:59;101302.75;;;20.35;47.78
74678;BME280;67324;56.326;43.982;2023-05-20T02:34:27;101319.22;;;20.37;47.87
74678;BME280;67324;56.326;43.982;2023-05-20T02:36:55;101307.31;;;20.33;47.84
74678;BME280;67324;56.326;43.982;2023-05-20T02:39:21;101315.75;;;20.36;47.88
74678;BME280;67324;56.326;43.982;2023-05-20T02:41:49;101317.56;;;20.36;47.78
74678;BME280;67324;56.326;43.982;2023-05-20T02:44:15;101307.88;;;20.36;47.75
74678;BME280;67324;56.326;43.982;2023-05-20T02:46:41;101307.31;;;20.33;47.88
74678;BME280;67324;56.326;43.982;2023-05-20T02:49:07;101311.75;;;20.32;47.76
74678;BME280;67324;56.326;43.982;2023-05-20T02:51:33;101317.56;;;20.36;48.13
74678;BME280;67324;56.326;43.982;2023-05-20T02:53:59;101321.16;;;20.35;47.96
74678;BME280;67324;56.326;43.982;2023-05-20T02:56:25;101321.16;;;20.35;47.77
74678;BME280;67324;56.326;43.982;2023-05-20T02:58:51;101310.66;;;20.35;47.81
74678;BME280;67324;56.326;43.982;2023-05-20T03:01:17;101320.28;;;20.34;47.81
74678;BME280;67324;56.326;43.982;2023-05-20T03:03:43;101322.94;;;20.34;47.75
74678;BME280;67324;56.326;43.982;2023-05-20T03:06:09;101317.81;;;20.33;47.84
74678;BME280;67324;56.326;43.982;2023-05-20T03:08:37;101320.28;;;20.34;47.80
74678;BME280;67324;56.326;43.982;2023-05-20T03:11:04;101318.75;;;20.32;47.71
74678;BME280;67324;56.326;43.982;2023-05-20T03:13:30;101311.97;;;20.29;47.76
74678;BME280;67324;56.326;43.982;2023-05-20T03:15:57;101328.31;;;20.33;47.81
74678;BME280;67324;56.326;43.982;2023-05-20T03:18:26;101325.56;;;20.34;47.84
74678;BME280;67324;56.326;43.982;2023-05-20T03:20:52;101322.09;;;20.34;47.73
74678;BME280;67324;56.326;43.982;2023-05-20T03:23:18;101319.84;;;20.29;47.86
74678;BME280;67324;56.326;43.982;2023-05-20T03:26:03;101325.09;;;20.29;47.83
74678;BME280;67324;56.326;43.982;2023-05-20T03:28:29;101316.41;;;20.29;47.97
74678;BME280;67324;56.326;43.982;2023-05-20T03:30:55;101320.72;;;20.30;47.85
74678;BME280;67324;56.326;43.982;2023-05-20T03:33:39;101318.31;;;20.27;47.70
74678;BME280;67324;56.326;43.982;2023-05-20T03:36:06;101331.06;;;20.31;47.72
74678;BME280;67324;56.326;43.982;2023-05-20T03:38:32;101326.78;;;20.30;47.71
74678;BME280;67324;56.326;43.982;2023-05-20T03:40:59;101324.16;;;20.30;47.79
74678;BME280;67324;56.326;43.982;2023-05-20T03:43:25;101329.41;;;20.30;47.92
74678;BME280;67324;56.326;43.982;2023-05-20T03:45:52;101319.84;;;20.29;47.83
74678;BME280;67324;56.326;43.982;2023-05-20T03:48:18;101325.09;;;20.29;47.75
74678;BME280;67324;56.326;43.982;2023-05-20T03:50:45;101331.22;;;20.30;47.78
74678;BME280;67324;56.326;43.982;2023-05-20T03:53:11;101320.94;;;20.27;47.67
74678;BME280;67324;56.326;43.982;2023-05-20T03:55:40;101320.13;;;20.26;47.76
74678;BME280;67324;56.326;43.982;2023-05-20T03:58:08;101315.69;;;20.27;47.85
74678;BME280;67324;56.326;43.982;2023-05-20T04:00:33;101317.94;;;20.31;47.64
74678;BME280;67324;56.326;43.982;2023-05-20T04:03:00;101311.13;;;20.29;47.81
74678;BME280;67324;56.326;43.982;2023-05-20T04:05:26;101307.69;;;20.28;47.78
74678;BME280;67324;56.326;43.982;2023-05-20T04:07:54;101304.47;;;20.25;47.86
74678;BME280;67324;56.326;43.982;2023-05-20T04:10:22;101312.13;;;20.28;47.71
74678;BME280;67324;56.326;43.982;2023-05-20T04:12:50;101318.31;;;20.27;47.73
74678;BME280;67324;56.326;43.982;2023-05-20T04:15:17;101310.44;;;20.27;47.81
74678;BME280;67324;56.326;43.982;2023-05-20T04:17:55;101314.03;;;20.26;47.77
74678;BME280;67324;56.326;43.982;2023-05-20T04:20:21;101319.41;;;20.24;47.73
74678;BME280;67324;56.326;43.982;2023-05-20T04:22:51;101324.53;;;20.26;47.76
74678;BME280;67324;56.326;43.982;2023-05-20T04:25:19;101322.75;;;20.26;47.59
74678;BME280;67324;56.326;43.982;2023-05-20T04:27:46;101327.16;;;20.26;47.73
74678;BME280;67324;56.326;43.982;2023-05-20T04:30:14;101323.72;;;20.25;47.77
74678;BME280;67324;56.326;43.982;2023-05-20T04:32:43;101317.75;;;20.23;47.65
74678;BME280;67324;56.326;43.982;2023-05-20T04:35:09;101319.28;;;20.26;47.81
74678;BME280;67324;56.326;43.982;2023-05-20T04:37:41;101324.53;;;20.26;47.78
74678;BME280;67324;56.326;43.982;2023-05-20T04:40:11;101322.03;;;20.24;47.74
74678;BME280;67324;56.326;43.982;2023-05-20T04:42:38;101322.19;;;20.22;47.69
74678;BME280;67324;56.326;43.982;2023-05-20T04:45:04;101320.38;;;20.23;47.66
74678;BME280;67324;56.326;43.982;2023-05-20T04:47:34;101320.22;;;20.25;47.83
74678;BME280;67324;56.326;43.982;2023-05-20T04:50:06;101317.59;;;20.25;47.68
74678;BME280;67324;56.326;43.982;2023-05-20T04:52:38;101321.19;;;20.23;47.93
74678;BME280;67324;56.326;43.982;2023-05-20T04:55:07;101317.03;;;20.21;47.77
74678;BME280;67324;56.326;43.982;2023-05-20T04:57:37;101317.88;;;20.21;47.63
74678;BME280;67324;56.326;43.982;2023-05-20T05:00:11;101316.22;;;20.20;47.71
74678;BME280;67324;56.326;43.982;2023-05-20T05:02:38;101329.19;;;20.22;47.64
74678;BME280;67324;56.326;43.982;2023-05-20T05:05:05;101318.84;;;20.20;47.67
74678;BME280;67324;56.326;43.982;2023-05-20T05:07:34;101327.44;;;20.22;47.65
74678;BME280;67324;56.326;43.982;2023-05-20T05:10:00;101320.50;;;20.21;47.64
74678;BME280;67324;56.326;43.982;2023-05-20T05:12:32;101315.50;;;20.18;47.70
74678;BME280;67324;56.326;43.982;2023-05-20T05:14:58;101324.81;;;20.22;47.85
74678;BME280;67324;56.326;43.982;2023-05-20T05:17:25;101323.13;;;20.21;47.71
74678;BME280;67324;56.326;43.982;2023-05-20T05:19:51;101317.16;;;20.19;47.66
74678;BME280;67324;56.326;43.982;2023-05-20T05:22:17;101315.22;;;20.21;47.64
74678;BME280;67324;56.326;43.982;2023-05-20T05:24:44;101320.50;;;20.21;47.66
74678;BME280;67324;56.326;43.982;2023-05-20T05:27:10;101312.75;;;20.20;47.82
74678;BME280;67324;56.326;43.982;2023-05-20T05:29:37;101316.31;;;20.19;47.67
74678;BME280;67324;56.326;43.982;2023-05-20T05:32:03;101320.50;;;20.21;47.74
74678;BME280;67324;56.326;43.982;2023-05-20T05:34:29;101323.25;;;20.20;47.53
74678;BME280;67324;56.326;43.982;2023-05-20T05:36:55;101332.91;;;20.19;47.67
74678;BME280;67324;56.326;43.982;2023-05-20T05:39:21;101326.72;;;20.20;47.73
74678;BME280;67324;56.326;43.982;2023-05-20T05:41:46;101327.66;;;20.19;47.74
74678;BME280;67324;56.326;43.982;2023-05-20T05:44:13;101328.53;;;20.20;47.78
74678;BME280;67324;56.326;43.982;2023-05-20T05:46:40;101326.13;;;20.17;47.75
74678;BME280;67324;56.326;43.982;2023-05-20T05:49:06;101326.84;;;20.19;47.67
74678;BME280;67324;56.326;43.982;2023-05-20T05:51:32;101329.47;;;20.19;47.74
74678;BME280;67324;56.326;43.982;2023-05-20T05:53:58;101335.69;;;20.18;47.76
74678;BME280;67324;56.326;43.982;2023-05-20T05:56:25;101325.28;;;20.16;47.59
74678;BME280;67324;56.326;43.982;2023-05-20T05:58:50;101335.81;;;20.16;47.71
74678;BME280;67324;56.326;43.982;2023-05-20T06:01:18;101346.03;;;20.19;47.71
74678;BME280;67324;56.326;43.982;2023-05-20T06:03:43;101340.22;;;20.16;47.66
74678;BME280;67324;56.326;43.982;2023-05-20T06:06:09;101338.56;;;20.15;47.59
74678;BME280;67324;56.326;43.982;2023-05-20T06:08:54;101343.56;;;20.18;47.82
74678;BME280;67324;56.326;43.982;2023-05-20T06:11:20;101333.88;;;20.18;47.69
74678;BME280;67324;56.326;43.982;2023-05-20T06:13:47;101343.56;;;20.18;47.51
74678;BME280;67324;56.326;43.982;2023-05-20T06:16:13;101345.38;;;20.17;47.78
74678;BME280;67324;56.326;43.982;2023-05-20T06:18:39;101347.03;;;20.18;47.67
74678;BME280;67324;56.326;43.982;2023-05-20T06:21:05;101338.56;;;20.15;47.72
74678;BME280;67324;56.326;43.982;2023-05-20T06:23:31;101337.72;;;20.14;47.69
74678;BME280;67324;56.326;43.982;2023-05-20T06:26:00;101338.44;;;20.16;47.62
74678;BME280;67324;56.326;43.982;2023-05-20T06:28:26;101338.44;;;20.16;47.60
74678;BME280;67324;56.326;43.982;2023-05-20T06:30:56;101334.25;;;20.14;47.64
74678;BME280;67324;56.326;43.982;2023-05-20T06:33:24;101343.69;;;20.16;47.73
74678;BME280;67324;56.326;43.982;2023-05-20T06:35:52;101339.66;;;20.12;47.65
74678;BME280;67324;56.326;43.982;2023-05-20T06:38:19;101337.03;;;20.12;47.60
74678;BME280;67324;56.326;43.982;2023-05-20T06:40:46;101336.06;;;20.13;47.71
74678;BME280;67324;56.326;43.982;2023-05-20T06:43:14;101341.19;;;20.15;47.53
74678;BME280;67324;56.326;43.982;2023-05-20T06:45:48;101330.09;;;20.11;47.54
74678;BME280;67324;56.326;43.982;2023-05-20T06:48:28;101330.91;;;20.12;47.70
74678;BME280;67324;56.326;43.982;2023-05-20T06:50:54;101332.47;;;20.14;47.80
74678;BME280;67324;56.326;43.982;2023-05-20T06:53:21;101330.09;;;20.11;47.73
74678;BME280;67324;56.326;43.982;2023-05-20T06:55:47;101329.16;;;20.12;47.71
74678;BME280;67324;56.326;43.982;2023-05-20T06:58:13;101340.34;;;20.14;47.53
74678;BME280;67324;56.326;43.982;2023-05-20T07:00:39;101337.72;;;20.14;47.74
74678;BME280;67324;56.326;43.982;2023-05-20T07:03:06;101330.09;;;20.11;47.65
74678;BME280;67324;56.326;43.982;2023-05-20T07:05:33;101333.44;;;20.13;47.70
74678;BME280;67324;56.326;43.982;2023-05-20T07:07:58;101332.72;;;20.11;47.54
74678;BME280;67324;56.326;43.982;2023-05-20T07:10:25;101338.81;;;20.12;47.65
74678;BME280;67324;56.326;43.982;2023-05-20T07:12:52;101346.56;;;20.13;47.71
74678;BME280;67324;56.326;43.982;2023-05-20T07:15:18;101345.75;;;20.13;47.74
74678;BME280;67324;56.326;43.982;2023-05-20T07:17:44;101343.94;;;20.13;47.75
74678;BME280;67324;56.326;43.982;2023-05-20T07:20:10;101347.66;;;20.11;47.58
74678;BME280;67324;56.326;43.982;2023-05-20T07:22:37;101354.44;;;20.13;47.68
74678;BME280;67324;56.326;43.982;2023-05-20T07:25:16;101349.44;;;20.10;47.65
74678;BME280;67324;56.326;43.982;2023-05-20T07:27:42;101350.16;;;20.12;47.67
74678;BME280;67324;56.326;43.982;2023-05-20T07:30:08;101349.44;;;20.10;47.61
74678;BME280;67324;56.326;43.982;2023-05-20T07:32:36;101354.72;;;20.10;47.70
74678;BME280;67324;56.326;43.982;2023-05-20T07:35:02;101350.28;;;20.11;47.62
74678;BME280;67324;56.326;43.982;2023-05-20T07:37:29;101351.94;;;20.12;47.44
74678;BME280;67324;56.326;43.982;2023-05-20T07:39:55;101359.81;;;20.12;47.63
74678;BME280;67324;56.326;43.982;2023-05-20T07:42:21;101356.63;;;20.08;47.73
74678;BME280;67324;56.326;43.982;2023-05-20T07:44:50;101354.81;;;20.09;47.76
74678;BME280;67324;56.326;43.982;2023-05-20T07:47:35;101356.63;;;20.08;47.51
74678;BME280;67324;56.326;43.982;2023-05-20T07:50:01;101359.09;;;20.10;47.49
74678;BME280;67324;56.326;43.982;2023-05-20T07:52:29;101363.41;;;20.11;47.57
74678;BME280;67324;56.326;43.982;2023-05-20T07:54:56;101366.03;;;20.11;47.51
74678;BME280;67324;56.326;43.982;2023-05-20T07:57:22;101368.78;;;20.09;47.59
74678;BME280;67324;56.326;43.982;2023-05-20T07:59:47;101361.88;;;20.08;47.59
74678;BME280;67324;56.326;43.982;2023-05-20T08:02:14;101361.03;;;20.08;47.65
74678;BME280;67324;56.326;43.982;2023-05-20T08:04:42;101361.97;;;20.07;47.66
74678;BME280;67324;56.326;43.982;2023-05-20T08:07:07;101368.78;;;20.09;47.66
74678;BME280;67324;56.326;43.982;2023-05-20T08:09:41;101369.88;;;20.07;47.46
74678;BME280;67324;56.326;43.982;2023-05-20T08:12:08;101369.88;;;20.07;47.55
74678;BME280;67324;56.326;43.982;2023-05-20T08:14:34;101373.31;;;20.07;47.47
74678;BME280;67324;56.326;43.982;2023-05-20T08:17:00;101375.72;;;20.10;47.58
74678;BME280;67324;56.326;43.982;2023-05-20T08:19:26;101373.19;;;20.09;47.41
74678;BME280;67324;56.326;43.982;2023-05-20T08:21:52;101374.03;;;20.09;47.36
74678;BME280;67324;56.326;43.982;2023-05-20T08:24:18;101373.19;;;20.09;47.64
74678;BME280;67324;56.326;43.982;2023-05-20T08:26:44;101369.88;;;20.07;47.52
74678;BME280;67324;56.326;43.982;2023-05-20T08:29:10;101372.38;;;20.08;47.42
74678;BME280;67324;56.326;43.982;2023-05-20T08:31:36;101363.91;;;20.05;47.36
74678;BME280;67324;56.326;43.982;2023-05-20T08:34:02;101371.41;;;20.09;47.63
74678;BME280;67324;56.326;43.982;2023-05-20T08:36:28;101371.56;;;20.08;47.55
74678;BME280;67324;56.326;43.982;2023-05-20T08:38:54;101370.69;;;20.07;47.41
74678;BME280;67324;56.326;43.982;2023-05-20T08:41:21;101368.06;;;20.07;47.49
74678;BME280;67324;56.326;43.982;2023-05-20T08:43:48;101370.69;;;20.07;47.50
74678;BME280;67324;56.326;43.982;2023-05-20T08:46:16;101371.56;;;20.08;47.56
74678;BME280;67324;56.326;43.982;2023-05-20T08:48:43;101375.13;;;20.07;47.53
74678;BME280;67324;56.326;43.982;2023-05-20T08:51:10;101375.13;;;20.07;47.42
74678;BME280;67324;56.326;43.982;2023-05-20T08:53:36;101374.28;;;20.06;47.60
74678;BME280;67324;56.326;43.982;2023-05-20T08:56:02;101377.88;;;20.05;47.67
74678;BME280;67324;56.326;43.982;2023-05-20T08:58:30;101383.13;;;20.05;47.68
74678;BME280;67324;56.326;43.982;2023-05-20T09:00:58;101386.44;;;20.07;47.62
74678;BME280;67324;56.326;43.982;2023-05-20T09:03:24;101387.41;;;20.06;47.55
74678;BME280;67324;56.326;43.982;2023-05-20T09:05:52;101395.19;;;20.08;47.56
74678;BME280;67324;56.326;43.982;2023-05-20T09:08:22;101385.63;;;20.07;47.61
74678;BME280;67324;56.326;43.982;2023-05-20T09:10:51;101393.50;;;20.07;47.55
74678;BME280;67324;56.326;43.982;2023-05-20T09:13:16;101388.25;;;20.07;47.50
74678;BME280;67324;56.326;43.982;2023-05-20T09:15:42;101392.78;;;20.05;47.52
74678;BME280;67324;56.326;43.982;2023-05-20T09:18:08;101397.94;;;20.06;47.50
74678;BME280;67324;56.326;43.982;2023-05-20T09:20:36;101390.88;;;20.07;47.68
74678;BME280;67324;56.326;43.982;2023-05-20T09:23:06;101400.56;;;20.06;47.53
74678;BME280;67324;56.326;43.982;2023-05-20T09:25:34;101403.19;;;20.06;47.38
74678;BME280;67324;56.326;43.982;2023-05-20T09:28:03;101397.94;;;20.06;47.35
74678;BME280;67324;56.326;43.982;2023-05-20T09:30:31;101398.75;;;20.07;47.56
74678;BME280;67324;56.326;43.982;2023-05-20T09:32:58;101401.53;;;20.05;47.52
74678;BME280;67324;56.326;43.982;2023-05-20T09:35:43;101406.06;;;20.03;47.44
74678;BME280;67324;56.326;43.982;2023-05-20T09:38:10;101402.47;;;20.04;47.37
74678;BME280;67324;56.326;43.982;2023-05-20T09:40:36;101399.84;;;20.04;47.59
74678;BME280;67324;56.326;43.982;2023-05-20T09:43:06;101409.41;;;20.05;47.44
74678;BME280;67324;56.326;43.982;2023-05-20T09:45:33;101416.41;;;20.05;47.63
74678;BME280;67324;56.326;43.982;2023-05-20T09:48:00;101417.28;;;20.05;47.59
74678;BME280;67324;56.326;43.982;2023-05-20T09:50:27;101410.50;;;20.03;47.61
74678;BME280;67324;56.326;43.982;2023-05-20T09:52:54;101407.72;;;20.04;47.55
74678;BME280;67324;56.326;43.982;2023-05-20T09:55:22;101400.09;;;20.01;47.51
74678;BME280;67324;56.326;43.982;2023-05-20T09:57:49;101406.78;;;20.05;47.44
74678;BME280;67324;56.326;43.982;2023-05-20T10:00:15;101410.59;;;20.01;47.35
74678;BME280;67324;56.326;43.982;2023-05-20T10:02:44;101413.78;;;20.05;47.58
74678;BME280;67324;56.326;43.982;2023-05-20T10:05:32;101412.97;;;20.04;47.39
74678;BME280;67324;56.326;43.982;2023-05-20T10:19:27;101420.13;;;20.02;47.61
74678;BME280;67324;56.326;43.982;2023-05-20T10:22:06;101425.38;;;20.02;47.50
74678;BME280;67324;56.326;43.982;2023-05-20T10:24:37;101430.63;;;20.02;47.39
74678;BME280;67324;56.326;43.982;2023-05-20T10:27:12;101424.56;;;20.01;47.37
74678;BME280;67324;56.326;43.982;2023-05-20T10:29:52;101432.44;;;20.01;47.36
74678;BME280;67324;56.326;43.982;2023-05-20T10:34:50;101429.09;;;19.99;47.41
74678;BME280;67324;56.326;43.982;2023-05-20T10:37:22;101436.84;;;20.01;47.52
74678;BME280;67324;56.326;43.982;2023-05-20T10:39:49;101442.13;;;20.01;47.63
74678;BME280;67324;56.326;43.982;2023-05-20T10:42:15;101446.41;;;20.02;47.52
74678;BME280;67324;56.326;43.982;2023-05-20T10:47:08;101445.56;;;20.01;47.47
74678;BME280;67324;56.326;43.982;2023-05-20T10:49:34;101450.81;;;20.01;47.48
74678;BME280;67324;56.326;43.982;2023-05-20T10:52:01;101455.34;;;19.99;47.41
74678;BME280;67324;56.326;43.982;2023-05-20T10:54:27;101454.66;;;19.97;47.45
74678;BME280;67324;56.326;43.982;2023-05-20T10:56:54;101446.66;;;19.99;47.50
74678;BME280;67324;56.326;43.982;2023-05-20T10:59:20;101456.91;;;20.02;47.39
74678;BME280;67324;56.326;43.982;2023-05-20T11:01:47;101453.59;;;20.00;47.52
74678;BME280;67324;56.326;43.982;2023-05-20T11:04:15;101451.66;;;20.02;47.56
74678;BME280;67324;56.326;43.982;2023-05-20T11:06:51;101451.66;;;20.02;47.43
74678;BME280;67324;56.326;43.982;2023-05-20T11:09:21;101455.25;;;20.01;47.51
74678;BME280;67324;56.326;43.982;2023-05-20T11:11:49;101460.50;;;20.01;47.62
74678;BME280;67324;56.326;43.982;2023-05-20T11:14:15;101450.00;;;20.01;47.56
74678;BME280;67324;56.326;43.982;2023-05-20T11:17:01;101449.28;;;19.99;47.45
74678;BME280;67324;56.326;43.982;2023-05-20T11:19:27;101452.72;;;19.99;47.40
74678;BME280;67324;56.326;43.982;2023-05-20T11:21:53;101452.88;;;19.98;47.54
74678;BME280;67324;56.326;43.982;2023-05-20T11:24:25;101457.88;;;20.01;47.45
74678;BME280;67324;56.326;43.982;2023-05-20T11:26:52;101454.41;;;20.00;47.50
74678;BME280;67324;56.326;43.982;2023-05-20T11:29:19;101448.44;;;19.98;47.41
74678;BME280;67324;56.326;43.982;2023-05-20T11:31:48;101451.91;;;19.99;47.50
74678;BME280;67324;56.326;43.982;2023-05-20T11:34:16;101454.53;;;19.99;47.47
74678;BME280;67324;56.326;43.982;2023-05-20T11:36:44;101463.13;;;20.01;47.35
74678;BME280;67324;56.326;43.982;2023-05-20T11:39:11;101447.63;;;19.98;47.28
74678;BME280;67324;56.326;43.982;2023-05-20T11:41:38;101457.16;;;19.99;47.46
74678;BME280;67324;56.326;43.982;2023-05-20T11:44:09;101458.94;;;19.98;47.39
74678;BME280;67324;56.326;43.982;2023-05-20T11:46:59;101451.19;;;19.97;47.31
74678;BME280;67324;56.326;43.982;2023-05-20T11:49:26;101461.47;;;20.00;47.31
74678;BME280;67324;56.326;43.982;2023-05-20T11:51:52;101458.94;;;19.98;47.45
74678;BME280;67324;56.326;43.982;2023-05-20T11:54:21;101469.34;;;20.00;47.46
74678;BME280;67324;56.326;43.982;2023-05-20T11:56:47;101473.63;;;20.01;47.43
74678;BME280;67324;56.326;43.982;2023-05-20T11:59:31;101466.94;;;19.97;47.38
74678;BME280;67324;56.326;43.982;2023-05-20T12:01:57;101465.16;;;19.97;47.41
74678;BME280;67324;56.326;43.982;2023-05-20T12:04:23;101467.06;;;19.95;47.50
74678;BME280;67324;56.326;43.982;2023-05-20T12:06:49;101465.28;;;19.96;47.39
74678;BME280;67324;56.326;43.982;2023-05-20T12:09:15;101464.31;;;19.97;47.48
74678;BME280;67324;56.326;43.982;2023-05-20T12:11:41;101478.16;;;19.99;47.53
74678;BME280;67324;56.326;43.982;2023-05-20T12:14:09;101471.38;;;19.96;47.36
74678;BME280;67324;56.326;43.982;2023-05-20T12:16:36;101478.16;;;19.99;47.55
74678;BME280;67324;56.326;43.982;2023-05-20T12:19:03;101480.78;;;19.99;47.44
74678;BME280;67324;56.326;43.982;2023-05-20T12:21:29;101478.41;;;19.96;47.50
74678;BME280;67324;56.326;43.982;2023-05-20T12:23:58;101477.44;;;19.97;47.43
74678;BME280;67324;56.326;43.982;2023-05-20T12:26:25;101475.69;;;19.97;47.54
74678;BME280;67324;56.326;43.982;2023-05-20T12:28:52;101476.50;;;19.98;47.40
74678;BME280;67324;56.326;43.982;2023-05-20T12:31:19;101471.38;;;19.96;47.42
74678;BME280;67324;56.326;43.982;2023-05-20T12:33:45;101481.75;;;19.98;47.31
74678;BME280;67324;56.326;43.982;2023-05-20T12:36:12;101471.25;;;19.98;47.41
74678;BME280;67324;56.326;43.982;2023-05-20T12:38:38;101475.78;;;19.96;47.22
74678;BME280;67324;56.326;43.982;2023-05-20T12:41:04;101475.78;;;19.96;47.44
74678;BME280;67324;56.326;43.982;2023-05-20T12:43:30;101485.31;;;19.97;47.48
74678;BME280;67324;56.326;43.982;2023-05-20T12:45:56;101486.19;;;19.97;47.49
74678;BME280;67324;56.326;43.982;2023-05-20T12:48:22;101476.03;;;19.93;47.47
74678;BME280;67324;56.326;43.982;2023-05-20T12:50:48;101472.19;;;19.97;47.32
74678;BME280;67324;56.326;43.982;2023-05-20T12:53:14;101470.63;;;19.94;47.39
74678;BME280;67324;56.326;43.982;2023-05-20T12:55:40;101480.94;;;19.97;47.45
74678;BME280;67324;56.326;43.982;2023-05-20T12:58:06;101477.44;;;19.97;47.39
74678;BME280;67324;56.326;43.982;2023-05-20T13:00:34;101474.81;;;19.97;47.55